createdAt,value
2023-06-03T00:01:05.136Z,33.07
2023-06-03T00:03:09.472Z,33.13
2023-06-03T00:05:17.179Z,33.48
2023-06-03T00:07:19.600Z,33.60
2023-06-03T00:09:21.807Z,33.02
2023-06-03T00:11:26.973Z,33.48
2023-06-03T00:13:29.300Z,33.39
2023-06-03T00:15:32.535Z,33.86
2023-06-03T00:17:34.660Z,33.87
2023-06-03T00:19:38.025Z,33.81
2023-06-03T00:21:44.213Z,33.93
2023-06-03T00:23:46.025Z,33.92
2023-06-03T00:25:49.410Z,34.35
2023-06-03T00:27:53.510Z,34.04
2023-06-03T00:29:56.853Z,34.04
2023-06-03T00:31:58.919Z,34.24
2023-06-03T00:34:01.253Z,34.11
2023-06-03T00:36:05.305Z,34.48
2023-06-03T00:38:16.800Z,34.34
2023-06-03T00:40:20.449Z,34.17
2023-06-03T00:42:25.246Z,34.68
2023-06-03T00:44:31.240Z,34.43
2023-06-03T00:46:34.990Z,34.23
2023-06-03T00:48:45.304Z,34.63
2023-06-03T00:50:47.376Z,34.50
2023-06-03T00:52:55.763Z,34.69
2023-06-03T00:55:00.835Z,34.45
2023-06-03T00:57:13.735Z,35.01
2023-06-03T00:59:19.240Z,34.91
2023-06-03T01:01:20.999Z,35.13
2023-06-03T01:03:25.898Z,34.85
2023-06-03T01:05:28.224Z,35.39
2023-06-03T01:07:43.182Z,34.90
2023-06-03T01:09:58.971Z,35.76
2023-06-03T01:12:16.737Z,36.11
2023-06-03T01:14:23.683Z,36.64
2023-06-03T01:16:26.811Z,36.78
2023-06-03T01:18:29.781Z,36.46
2023-06-03T01:20:32.905Z,36.52
2023-06-03T01:22:39.220Z,36.70
2023-06-03T01:24:42.416Z,36.42
2023-06-03T01:26:44.235Z,36.39
2023-06-03T01:28:45.914Z,36.80
2023-06-03T01:30:51.676Z,36.63
2023-06-03T01:32:54.238Z,36.48
2023-06-03T01:34:56.825Z,36.25
2023-06-03T01:37:01.770Z,35.93
2023-06-03T01:39:03.990Z,36.09
2023-06-03T01:41:17.448Z,36.43
2023-06-03T01:43:27.716Z,36.75
2023-06-03T01:45:29.658Z,36.69
2023-06-03T01:47:31.911Z,37.04
2023-06-03T01:49:33.754Z,36.35
2023-06-03T01:51:37.402Z,35.84
2023-06-03T01:53:39.164Z,36.58
2023-06-03T01:55:41.736Z,36.62
2023-06-03T01:57:45.175Z,36.72
2023-06-03T01:59:46.919Z,37.39
2023-06-03T02:01:51.117Z,36.91
2023-06-03T02:03:52.973Z,37.23
2023-06-03T02:05:54.719Z,37.03
2023-06-03T02:07:56.600Z,37.40
2023-06-03T02:09:58.997Z,36.96
2023-06-03T02:12:01.693Z,37.13
2023-06-03T02:14:04.839Z,36.85
2023-06-03T02:16:07.531Z,36.64
2023-06-03T02:18:11.349Z,36.49
2023-06-03T02:20:15.847Z,36.25
2023-06-03T02:22:21.452Z,36.30
2023-06-03T02:24:23.712Z,36.14
2023-06-03T02:26:25.600Z,36.23
2023-06-03T02:28:27.370Z,36.01
2023-06-03T02:30:30.663Z,36.28
2023-06-03T02:32:32.619Z,36.40
2023-06-03T02:34:35.541Z,36.37
2023-06-03T02:36:37.389Z,36.50
2023-06-03T02:38:40.989Z,36.54
2023-06-03T02:40:42.754Z,37.06
2023-06-03T02:42:44.707Z,37.37
2023-06-03T02:44:46.430Z,37.29
2023-06-03T02:46:49.657Z,37.23
2023-06-03T02:48:51.796Z,37.03
2023-06-03T02:50:53.642Z,36.94
2023-06-03T02:52:57.971Z,36.99
2023-06-03T02:54:59.678Z,37.01
2023-06-03T02:57:02.861Z,36.91
2023-06-03T02:59:05.457Z,37.08
2023-06-03T03:01:09.826Z,37.09
2023-06-03T03:03:13.380Z,37.36
2023-06-03T03:05:15.327Z,37.51
2023-06-03T03:07:16.977Z,37.79
2023-06-03T03:09:20.060Z,37.66
2023-06-03T03:11:24.050Z,37.79
2023-06-03T03:13:28.971Z,37.69
2023-06-03T03:15:33.166Z,37.77
2023-06-03T03:17:36.378Z,37.56
2023-06-03T03:19:39.457Z,37.96
2023-06-03T03:21:41.186Z,37.61
2023-06-03T03:23:42.987Z,37.77
2023-06-03T03:25:45.431Z,37.26
2023-06-03T03:27:48.054Z,37.57
2023-06-03T03:29:49.767Z,38.13
2023-06-03T03:31:57.837Z,38.58
2023-06-03T03:34:02.315Z,39.00
2023-06-03T03:36:06.345Z,39.16
2023-06-03T03:38:09.854Z,38.64
2023-06-03T03:40:19.268Z,38.71
2023-06-03T03:42:21.251Z,38.68
2023-06-03T03:44:23.845Z,38.72
2023-06-03T03:46:26.054Z,38.67
2023-06-03T03:48:31.354Z,38.88
2023-06-03T03:50:43.286Z,39.31
2023-06-03T03:52:50.601Z,38.76
2023-06-03T03:54:54.738Z,39.04
2023-06-03T03:56:58.223Z,39.39
2023-06-03T03:59:04.677Z,39.88
2023-06-03T04:01:08.860Z,39.54
2023-06-03T04:03:12.784Z,39.47
2023-06-03T04:05:15.483Z,39.18
2023-06-03T04:07:19.641Z,39.85
2023-06-03T04:09:23.913Z,40.42
2023-06-03T04:11:28.040Z,40.56
2023-06-03T04:13:37.079Z,40.52
2023-06-03T04:15:38.692Z,40.66
2023-06-03T04:17:42.245Z,40.23
2023-06-03T04:19:43.871Z,40.13
2023-06-03T04:21:46.073Z,40.03
2023-06-03T04:23:50.283Z,40.43
2023-06-03T04:25:54.084Z,40.89
2023-06-03T04:27:55.710Z,40.87
2023-06-03T04:29:57.475Z,40.86
2023-06-03T04:31:59.314Z,40.73
2023-06-03T04:34:01.495Z,40.68
2023-06-03T04:36:07.289Z,41.17
2023-06-03T04:38:11.379Z,40.93
2023-06-03T04:40:13.329Z,40.74
2023-06-03T04:42:17.185Z,40.70
2023-06-03T04:44:18.792Z,40.59
2023-06-03T04:46:20.481Z,40.27
2023-06-03T04:48:22.213Z,43.17
2023-06-03T04:50:23.871Z,39.74
2023-06-03T04:52:25.456Z,39.44
2023-06-03T04:54:33.227Z,39.59
2023-06-03T04:56:34.821Z,39.50
2023-06-03T04:58:38.601Z,39.32
2023-06-03T05:00:43.335Z,39.21
2023-06-03T05:02:45.186Z,39.09
2023-06-03T05:04:47.001Z,39.51
2023-06-03T05:06:50.158Z,39.77
2023-06-03T05:08:52.230Z,39.79
2023-06-03T05:10:54.047Z,39.39
2023-06-03T05:12:58.501Z,39.45
2023-06-03T05:15:01.705Z,39.29
2023-06-03T05:17:03.807Z,39.67
2023-06-03T05:19:06.528Z,39.48
2023-06-03T05:21:08.806Z,39.38
2023-06-03T05:23:10.628Z,39.65
2023-06-03T05:25:12.609Z,39.79
2023-06-03T05:27:14.438Z,40.08
2023-06-03T05:29:16.113Z,40.19
2023-06-03T05:31:20.362Z,40.01
2023-06-03T05:33:27.359Z,39.97
2023-06-03T05:35:30.962Z,39.96
2023-06-03T05:37:32.759Z,39.74
2023-06-03T05:39:34.413Z,40.03
2023-06-03T05:41:36.158Z,40.14
2023-06-03T05:43:37.833Z,39.93
2023-06-03T05:45:39.593Z,39.23
2023-06-03T05:47:42.746Z,39.54
2023-06-03T05:49:45.322Z,39.19
2023-06-03T05:51:48.144Z,39.19
2023-06-03T05:53:49.900Z,39.77
2023-06-03T05:55:52.250Z,38.98
2023-06-03T05:57:54.266Z,39.20
2023-06-03T05:59:55.922Z,38.98
2023-06-03T06:01:57.873Z,38.83
2023-06-03T06:04:01.355Z,39.81
2023-06-03T06:06:03.247Z,42.68
2023-06-03T06:08:10.617Z,41.35
2023-06-03T06:10:12.264Z,41.94
2023-06-03T06:12:14.209Z,41.26
2023-06-03T06:14:16.300Z,41.71
2023-06-03T06:16:18.007Z,40.35
2023-06-03T06:18:22.976Z,40.88
2023-06-03T06:20:26.399Z,39.54
2023-06-03T06:22:28.055Z,39.61
2023-06-03T06:24:31.472Z,38.26
2023-06-03T06:26:36.457Z,37.65
2023-06-03T06:28:38.571Z,36.85
2023-06-03T06:30:40.453Z,37.17
2023-06-03T06:32:49.045Z,36.95
2023-06-03T06:34:50.840Z,37.22
2023-06-03T06:36:54.340Z,37.62
2023-06-03T06:38:56.920Z,36.28
2023-06-03T06:40:59.013Z,36.48
2023-06-03T06:43:01.273Z,38.11
2023-06-03T06:45:09.009Z,36.65
2023-06-03T06:47:11.214Z,36.87
2023-06-03T06:49:13.261Z,37.47
2023-06-03T06:51:16.006Z,37.42
2023-06-03T06:53:20.382Z,37.48
2023-06-03T06:55:39.490Z,36.72
2023-06-03T06:57:41.230Z,37.23
2023-06-03T06:59:43.025Z,36.91
2023-06-03T07:01:44.811Z,36.41
2023-06-03T07:03:46.707Z,37.34
2023-06-03T07:05:48.632Z,36.26
2023-06-03T07:07:52.842Z,37.86
2023-06-03T07:09:56.264Z,36.81
2023-06-03T07:11:58.287Z,36.42
2023-06-03T07:14:00.037Z,35.93
2023-06-03T07:16:07.122Z,37.29
2023-06-03T07:18:10.693Z,35.79
2023-06-03T07:20:20.024Z,35.79
2023-06-03T07:22:21.856Z,36.74
2023-06-03T07:24:23.619Z,37.43
2023-06-03T07:26:27.711Z,36.37
2023-06-03T07:28:32.294Z,34.97
2023-06-03T07:30:35.585Z,36.10
2023-06-03T07:32:38.442Z,38.25
2023-06-03T07:34:41.405Z,36.06
2023-06-03T07:36:43.182Z,34.85
2023-06-03T07:38:59.084Z,34.40
2023-06-03T07:41:00.991Z,35.31
2023-06-03T07:43:04.338Z,35.69
2023-06-03T07:45:07.554Z,35.60
2023-06-03T07:47:09.656Z,34.91
2023-06-03T07:49:12.800Z,36.61
2023-06-03T07:51:15.327Z,37.54
2023-06-03T07:53:25.354Z,37.03
2023-06-03T07:55:27.905Z,35.78
2023-06-03T07:57:29.662Z,35.12
2023-06-03T07:59:35.311Z,34.61
2023-06-03T08:01:37.845Z,34.28
2023-06-03T08:03:39.801Z,35.59
2023-06-03T08:05:42.033Z,34.55
2023-06-03T08:07:44.478Z,36.01
2023-06-03T08:09:48.052Z,35.85
2023-06-03T08:11:51.632Z,36.99
2023-06-03T08:13:54.897Z,35.91
2023-06-03T08:16:00.014Z,37.58
2023-06-03T08:18:05.096Z,36.16
2023-06-03T08:20:07.841Z,33.93
2023-06-03T08:22:33.902Z,34.37
2023-06-03T08:24:35.688Z,37.80
2023-06-03T08:26:37.398Z,36.67
2023-06-03T08:28:39.265Z,37.69
2023-06-03T08:30:43.614Z,37.16
2023-06-03T08:32:47.760Z,37.53
2023-06-03T08:34:53.590Z,36.37
2023-06-03T08:36:57.009Z,37.27
2023-06-03T08:38:59.296Z,36.81
2023-06-03T08:41:01.333Z,36.60
2023-06-03T08:43:07.428Z,36.44
2023-06-03T08:45:13.228Z,36.80
2023-06-03T08:47:24.292Z,32.33
2023-06-03T08:49:37.340Z,32.63
2023-06-03T08:51:40.910Z,35.35
2023-06-03T08:53:48.057Z,35.85
2023-06-03T08:55:54.375Z,35.23
2023-06-03T08:58:04.895Z,35.59
2023-06-03T09:00:09.018Z,34.45
2023-06-03T09:02:12.029Z,33.47
2023-06-03T09:04:17.437Z,34.77
2023-06-03T09:06:22.599Z,35.41
2023-06-03T09:08:27.833Z,32.25
2023-06-03T09:10:31.767Z,33.91
2023-06-03T09:12:34.716Z,32.14
2023-06-03T09:14:40.422Z,32.76
2023-06-03T09:16:43.015Z,32.91
2023-06-03T09:18:45.685Z,34.05
2023-06-03T09:20:48.059Z,33.23
2023-06-03T09:23:00.186Z,35.02
2023-06-03T09:25:02.763Z,35.22
2023-06-03T09:27:05.281Z,33.98
2023-06-03T09:29:07.081Z,33.49
2023-06-03T09:31:09.175Z,33.52
2023-06-03T09:33:11.337Z,33.71
2023-06-03T09:35:13.693Z,33.01
2023-06-03T09:37:15.721Z,32.99
2023-06-03T09:39:34.047Z,33.13
2023-06-03T09:41:36.059Z,32.40
2023-06-03T09:43:37.848Z,32.54
2023-06-03T09:45:45.171Z,32.62
2023-06-03T09:47:47.027Z,34.76
2023-06-03T09:50:02.318Z,33.59
2023-06-03T09:52:08.541Z,32.78
2023-06-03T09:54:15.965Z,32.00
2023-06-03T09:56:27.423Z,32.32
2023-06-03T09:58:29.815Z,32.73
2023-06-03T10:00:33.229Z,32.58
2023-06-03T10:02:35.911Z,34.44
2023-06-03T10:04:46.192Z,35.07
2023-06-03T10:06:50.809Z,35.23
2023-06-03T10:08:52.996Z,34.49
2023-06-03T10:10:56.701Z,32.08
2023-06-03T10:15:38.173Z,32.08
2023-06-03T10:17:46.203Z,33.11
2023-06-03T10:19:49.207Z,31.72
2023-06-03T10:21:51.267Z,31.81
2023-06-03T10:23:57.967Z,32.26
2023-06-03T10:26:32.403Z,31.33
2023-06-03T10:28:37.015Z,31.83
2023-06-03T10:30:39.371Z,31.43
2023-06-03T10:32:44.255Z,31.28
2023-06-03T10:34:47.856Z,31.28
2023-06-03T10:36:53.313Z,32.67
2023-06-03T10:38:56.900Z,31.61
2023-06-03T10:41:00.386Z,33.58
2023-06-03T10:43:03.430Z,32.35
2023-06-03T10:45:11.384Z,34.09
2023-06-03T10:47:22.740Z,33.75
2023-06-03T10:49:28.820Z,31.11
2023-06-03T10:51:45.136Z,30.68
2023-06-03T10:53:59.721Z,31.57
2023-06-03T10:56:09.668Z,31.89
2023-06-03T10:58:15.732Z,30.60
2023-06-03T11:00:50.886Z,33.40
2023-06-03T11:03:07.542Z,32.05
2023-06-03T11:05:23.136Z,31.50
2023-06-03T11:07:54.741Z,30.21
2023-06-03T11:09:56.535Z,31.05
2023-06-03T11:12:02.541Z,30.72
2023-06-03T11:14:04.258Z,30.32
2023-06-03T11:16:05.985Z,29.30
2023-06-03T11:18:18.486Z,30.57
2023-06-03T11:20:38.503Z,30.88
2023-06-03T11:22:43.348Z,30.64
2023-06-03T11:24:51.569Z,30.61
2023-06-03T11:26:53.544Z,29.94
2023-06-03T11:28:55.515Z,31.15
2023-06-03T11:30:58.029Z,31.27
2023-06-03T11:33:19.280Z,29.10
2023-06-03T11:35:27.993Z,30.41
2023-06-03T11:37:51.418Z,31.40
2023-06-03T11:40:01.215Z,32.06
2023-06-03T11:42:12.777Z,32.37
2023-06-03T11:44:28.865Z,32.13
2023-06-03T11:46:31.458Z,30.35
2023-06-03T11:48:35.240Z,29.58
2023-06-03T11:50:47.414Z,31.64
2023-06-03T11:52:50.545Z,31.62
2023-06-03T11:54:52.486Z,30.45
2023-06-03T11:56:54.730Z,31.97
2023-06-03T11:58:56.711Z,31.94
2023-06-03T12:01:08.809Z,28.43
2023-06-03T12:03:16.842Z,30.07
2023-06-03T12:05:20.228Z,29.19
2023-06-03T12:07:25.717Z,29.35
2023-06-03T12:09:29.420Z,30.62
2023-06-03T12:11:33.218Z,31.14
2023-06-03T12:13:43.884Z,28.85
2023-06-03T12:15:55.388Z,30.72
2023-06-03T12:18:04.549Z,31.11
2023-06-03T12:20:07.921Z,30.67
2023-06-03T12:22:20.484Z,31.76
2023-06-03T12:24:28.281Z,30.96
2023-06-03T12:26:37.436Z,28.26
2023-06-03T12:28:39.826Z,30.79
2023-06-03T12:30:41.524Z,28.75
2023-06-03T12:32:53.008Z,30.00
2023-06-03T12:34:54.862Z,28.72
2023-06-03T12:36:56.877Z,29.46
2023-06-03T12:39:01.679Z,27.29
2023-06-03T12:41:11.616Z,28.62
2023-06-03T12:43:21.246Z,28.53
2023-06-03T12:45:24.336Z,27.87
2023-06-03T12:47:26.539Z,27.45
2023-06-03T12:49:28.363Z,26.98
2023-06-03T12:51:32.400Z,25.84
2023-06-03T12:53:34.102Z,27.30
2023-06-03T12:55:37.169Z,26.39
2023-06-03T12:57:40.335Z,26.80
2023-06-03T13:00:02.159Z,26.81
2023-06-03T13:02:04.188Z,28.22
2023-06-03T13:04:06.042Z,27.86
2023-06-03T13:06:07.813Z,24.86
2023-06-03T13:08:09.678Z,24.58
2023-06-03T13:10:13.079Z,26.95
2023-06-03T13:12:16.516Z,25.72
2023-06-03T13:14:18.228Z,25.47
2023-06-03T13:16:20.061Z,24.53
2023-06-03T13:18:21.797Z,23.23
2023-06-03T13:20:23.593Z,24.46
2023-06-03T13:22:29.203Z,24.48
2023-06-03T13:24:30.940Z,24.81
2023-06-03T13:26:32.684Z,25.73
2023-06-03T13:28:37.409Z,25.49
2023-06-03T13:30:39.150Z,25.71
2023-06-03T13:32:41.365Z,24.34
2023-06-03T13:34:44.427Z,27.25
2023-06-03T13:36:49.180Z,24.84
2023-06-03T13:38:51.059Z,25.26
2023-06-03T13:40:55.641Z,25.99
2023-06-03T13:42:57.714Z,24.90
2023-06-03T13:45:01.133Z,24.36
2023-06-03T13:47:06.342Z,24.75
2023-06-03T13:49:08.091Z,26.02
2023-06-03T13:51:09.838Z,25.84
2023-06-03T13:53:11.529Z,22.96
2023-06-03T13:55:13.292Z,22.95
2023-06-03T13:57:15.076Z,22.47
2023-06-03T13:59:17.191Z,24.00
2023-06-03T14:01:20.374Z,22.73
2023-06-03T14:03:22.112Z,25.04
2023-06-03T14:05:26.289Z,23.65
2023-06-03T14:07:29.234Z,22.24
2023-06-03T14:09:31.171Z,22.78
2023-06-03T14:11:34.582Z,26.50
2023-06-03T14:13:36.788Z,24.29
2023-06-03T14:15:38.675Z,23.67
2023-06-03T14:17:41.949Z,24.82
2023-06-03T14:19:43.613Z,23.67
2023-06-03T14:21:45.679Z,23.37
2023-06-03T14:23:47.445Z,23.26
2023-06-03T14:25:49.130Z,23.75
2023-06-03T14:27:51.011Z,25.27
2023-06-03T14:29:56.629Z,25.04
2023-06-03T14:32:01.246Z,27.59
2023-06-03T14:34:16.567Z,27.04
2023-06-03T14:36:18.420Z,25.69
2023-06-03T14:38:20.219Z,28.19
2023-06-03T14:40:22.707Z,24.81
2023-06-03T14:42:24.750Z,24.78
2023-06-03T14:44:29.579Z,25.77
2023-06-03T14:46:33.176Z,27.67
2023-06-03T14:48:35.797Z,27.35
2023-06-03T14:50:44.936Z,26.12
2023-06-03T14:52:46.729Z,24.27
2023-06-03T14:54:48.564Z,26.20
2023-06-03T14:56:50.306Z,27.48
2023-06-03T14:58:52.193Z,28.95
2023-06-03T15:01:00.079Z,25.31
2023-06-03T15:03:01.966Z,29.19
2023-06-03T15:05:03.994Z,25.79
2023-06-03T15:07:10.454Z,29.81
2023-06-03T15:09:13.887Z,30.36
2023-06-03T15:11:15.788Z,29.99
2023-06-03T15:13:17.714Z,30.01
2023-06-03T15:15:19.473Z,30.67
2023-06-03T15:17:21.192Z,30.10
2023-06-03T15:19:31.726Z,25.67
2023-06-03T15:21:34.618Z,25.54
2023-06-03T15:23:45.322Z,28.53
2023-06-03T15:25:48.180Z,26.54
2023-06-03T15:27:49.984Z,29.16
2023-06-03T15:29:57.911Z,28.76
2023-06-03T15:31:59.775Z,28.21
2023-06-03T15:34:01.722Z,27.87
2023-06-03T15:36:05.169Z,26.95
2023-06-03T15:38:14.538Z,25.92
2023-06-03T15:40:17.860Z,26.90
2023-06-03T15:42:19.930Z,28.90
2023-06-03T15:44:25.004Z,27.19
2023-06-03T15:46:26.853Z,26.78
2023-06-03T15:48:28.667Z,25.45
2023-06-03T15:50:30.447Z,26.91
2023-06-03T15:52:32.263Z,26.69
2023-06-03T15:54:33.990Z,26.30
2023-06-03T15:56:52.860Z,25.37
2023-06-03T15:58:54.604Z,29.63
2023-06-03T16:00:59.821Z,24.87
2023-06-03T16:03:01.654Z,25.14
2023-06-03T16:05:03.876Z,26.49
2023-06-03T16:07:05.682Z,24.72
2023-06-03T16:09:14.120Z,25.67
2023-06-03T16:11:15.816Z,26.66
2023-06-03T16:13:18.990Z,26.68
2023-06-03T16:15:20.864Z,27.04
2023-06-03T16:17:28.823Z,28.12
2023-06-03T16:19:30.981Z,30.53
2023-06-03T16:21:32.741Z,26.31
2023-06-03T16:23:34.561Z,27.06
2023-06-03T16:25:43.724Z,27.02
2023-06-03T16:27:47.489Z,25.30
2023-06-03T16:29:50.644Z,25.34
2023-06-03T16:31:58.325Z,26.10
2023-06-03T16:34:00.169Z,26.00
2023-06-03T16:36:01.936Z,25.16
2023-06-03T16:38:03.923Z,25.33
2023-06-03T16:40:08.505Z,29.33
2023-06-03T16:42:10.193Z,25.17
2023-06-03T16:44:11.951Z,24.20
2023-06-03T16:46:16.815Z,24.54
2023-06-03T16:48:18.520Z,24.30
2023-06-03T16:50:20.355Z,23.91
2023-06-03T16:52:30.285Z,25.00
2023-06-03T16:54:32.030Z,28.89
2023-06-03T16:56:33.828Z,24.09
2023-06-03T16:58:35.667Z,24.73
2023-06-03T17:00:44.098Z,25.35
2023-06-03T17:02:47.377Z,26.52
2023-06-03T17:04:49.349Z,25.31
2023-06-03T17:06:51.000Z,26.19
2023-06-03T17:09:01.519Z,28.94
2023-06-03T17:11:03.365Z,26.11
2023-06-03T17:13:05.241Z,25.38
2023-06-03T17:15:16.245Z,25.33
2023-06-03T17:17:19.459Z,25.18
2023-06-03T17:19:31.393Z,29.77
2023-06-03T17:21:33.100Z,24.69
2023-06-03T17:23:34.984Z,25.95
2023-06-03T17:25:43.020Z,24.19
2023-06-03T17:27:44.819Z,29.46
2023-06-03T17:29:47.471Z,27.12
2023-06-03T17:31:49.280Z,25.64
2023-06-03T17:33:51.144Z,25.42
2023-06-03T17:36:02.942Z,24.85
2023-06-03T17:38:04.654Z,25.63
2023-06-03T17:40:14.069Z,29.59
2023-06-03T17:42:15.926Z,30.47
2023-06-03T17:44:20.505Z,26.20
2023-06-03T17:46:29.574Z,24.71
2023-06-03T17:48:32.540Z,25.73
2023-06-03T17:50:34.408Z,24.83
2023-06-03T17:52:40.027Z,28.08
2023-06-03T17:54:41.806Z,25.04
2023-06-03T17:56:43.511Z,24.58
2023-06-03T17:58:45.411Z,26.22
2023-06-03T18:00:48.883Z,23.95
2023-06-03T18:03:00.438Z,25.49
2023-06-03T18:05:02.463Z,25.39
2023-06-03T18:07:04.613Z,26.94
2023-06-03T18:09:10.354Z,26.03
2023-06-03T18:11:12.215Z,30.23
2023-06-03T18:13:14.121Z,25.57
2023-06-03T18:15:15.970Z,26.00
2023-06-03T18:17:18.199Z,29.55
2023-06-03T18:19:29.148Z,32.25
2023-06-03T18:21:31.057Z,31.18
2023-06-03T18:23:36.108Z,29.04
2023-06-03T18:25:48.682Z,28.20
2023-06-03T18:27:50.838Z,33.75
2023-06-03T18:29:52.821Z,27.91
2023-06-03T18:31:57.037Z,25.95
2023-06-03T18:34:00.408Z,25.32
2023-06-03T18:36:02.471Z,24.30
2023-06-03T18:38:04.472Z,24.05
2023-06-03T18:40:10.608Z,24.69
2023-06-03T18:42:15.794Z,23.98
2023-06-03T18:44:23.056Z,24.79
2023-06-03T18:46:25.334Z,24.26
2023-06-03T18:48:30.475Z,24.37
2023-06-03T18:50:44.486Z,24.57
2023-06-03T18:52:47.448Z,24.86
2023-06-03T18:55:04.460Z,23.97
2023-06-03T18:57:13.940Z,24.45
2023-06-03T18:59:18.737Z,24.27
2023-06-03T19:01:20.810Z,24.52
2023-06-03T19:03:28.308Z,24.64
2023-06-03T19:05:30.970Z,24.47
2023-06-03T19:07:32.691Z,24.60
2023-06-03T19:09:34.611Z,24.71
2023-06-03T19:11:38.296Z,24.35
2023-06-03T19:13:41.399Z,24.21
2023-06-03T19:15:43.371Z,25.05
2023-06-03T19:17:46.793Z,25.51
2023-06-03T19:19:49.050Z,25.80
2023-06-03T19:21:50.808Z,25.79
2023-06-03T19:23:54.574Z,25.84
2023-06-03T19:25:56.311Z,25.64
2023-06-03T19:27:58.930Z,25.85
2023-06-03T19:30:02.367Z,32.82
2023-06-03T19:32:04.493Z,26.58
2023-06-03T19:34:06.500Z,26.28
2023-06-03T19:36:10.116Z,25.75
2023-06-03T19:38:11.985Z,25.85
2023-06-03T19:40:15.299Z,25.98
2023-06-03T19:42:17.032Z,25.86
2023-06-03T19:44:18.981Z,26.10
2023-06-03T19:46:23.761Z,27.08
2023-06-03T19:48:25.518Z,26.95
2023-06-03T19:50:27.297Z,26.84
2023-06-03T19:52:29.788Z,27.47
2023-06-03T19:54:32.366Z,26.91
2023-06-03T19:56:34.152Z,26.73
2023-06-03T19:58:36.335Z,27.22
2023-06-03T20:00:41.637Z,26.92
2023-06-03T20:02:44.997Z,27.08
2023-06-03T20:04:47.640Z,27.29
2023-06-03T20:06:49.491Z,27.59
2023-06-03T20:08:51.528Z,27.28
2023-06-03T20:10:54.336Z,27.60
2023-06-03T20:12:56.524Z,27.37
2023-06-03T20:14:58.415Z,27.72
2023-06-03T20:17:00.254Z,27.51
2023-06-03T20:19:03.443Z,27.29
2023-06-03T20:21:05.289Z,27.16
2023-06-03T20:23:07.234Z,27.48
2023-06-03T20:25:09.484Z,27.38
2023-06-03T20:27:12.013Z,27.78
2023-06-03T20:29:15.544Z,28.02
2023-06-03T20:31:17.395Z,27.66
2023-06-03T20:33:19.497Z,28.05
2023-06-03T20:35:23.050Z,28.08
2023-06-03T20:37:24.707Z,27.87
2023-06-03T20:39:26.707Z,28.22
2023-06-03T20:41:30.029Z,27.97
2023-06-03T20:43:31.883Z,28.29
2023-06-03T20:45:33.848Z,28.54
2023-06-03T20:47:39.556Z,28.61
2023-06-03T20:49:41.333Z,28.73
2023-06-03T20:51:44.636Z,28.87
2023-06-03T20:53:46.364Z,28.69
2023-06-03T20:55:48.230Z,28.75
2023-06-03T20:57:49.887Z,28.60
2023-06-03T20:59:53.914Z,29.64
2023-06-03T21:01:55.748Z,28.91
2023-06-03T21:03:57.638Z,29.29
2023-06-03T21:05:59.452Z,29.15
2023-06-03T21:08:03.007Z,29.12
2023-06-03T21:10:07.830Z,28.99
2023-06-03T21:12:12.362Z,29.22
2023-06-03T21:14:14.429Z,28.88
2023-06-03T21:16:18.711Z,28.87
2023-06-03T21:18:20.476Z,29.14
2023-06-03T21:20:22.251Z,28.98
2023-06-03T21:22:27.114Z,29.35
2023-06-03T21:24:30.963Z,29.60
2023-06-03T21:26:32.670Z,29.68
2023-06-03T21:28:34.372Z,30.32
2023-06-03T21:30:38.452Z,29.17
2023-06-03T21:32:40.277Z,29.61
2023-06-03T21:34:42.311Z,29.70
2023-06-03T21:36:44.080Z,29.88
2023-06-03T21:38:45.772Z,29.66
2023-06-03T21:40:48.910Z,29.75
2023-06-03T21:42:53.698Z,29.39
2023-06-03T21:44:55.338Z,29.20
2023-06-03T21:46:56.996Z,29.79
2023-06-03T21:48:58.701Z,29.27
2023-06-03T21:51:00.579Z,29.25
2023-06-03T21:53:07.745Z,29.06
2023-06-03T21:55:09.999Z,29.10
2023-06-03T21:57:13.345Z,29.60
2023-06-03T21:59:15.170Z,29.26
2023-06-03T22:01:17.186Z,29.37
2023-06-03T22:03:18.952Z,29.22
2023-06-03T22:05:20.872Z,29.45
2023-06-03T22:07:24.885Z,29.71
2023-06-03T22:09:26.580Z,29.56
2023-06-03T22:11:28.510Z,29.32
2023-06-03T22:13:31.588Z,29.57
2023-06-03T22:15:33.722Z,29.78
2023-06-03T22:17:35.736Z,29.90
2023-06-03T22:19:40.088Z,29.57
2023-06-03T22:21:41.984Z,29.70
2023-06-03T22:23:43.805Z,29.74
2023-06-03T22:25:48.004Z,29.93
2023-06-03T22:27:49.698Z,29.80
2023-06-03T22:29:55.248Z,29.58
2023-06-03T22:31:57.158Z,29.71
2023-06-03T22:33:58.959Z,29.24
2023-06-03T22:36:00.654Z,29.14
2023-06-03T22:38:03.251Z,29.36
2023-06-03T22:40:06.079Z,29.35
2023-06-03T22:42:10.838Z,29.12
2023-06-03T22:44:12.689Z,29.05
2023-06-03T22:46:15.687Z,28.62
2023-06-03T22:48:17.394Z,28.76
2023-06-03T22:50:19.444Z,28.97
2023-06-03T22:52:23.691Z,28.64
2023-06-03T22:54:25.547Z,28.73
2023-06-03T22:56:31.541Z,28.29
2023-06-03T22:58:33.121Z,28.13
2023-06-03T23:00:34.848Z,27.90
2023-06-03T23:02:40.606Z,28.26
2023-06-03T23:04:42.554Z,28.08
2023-06-03T23:06:44.191Z,28.03
2023-06-03T23:08:45.922Z,27.58
2023-06-03T23:10:47.649Z,27.51
2023-06-03T23:12:49.573Z,27.25
2023-06-03T23:14:54.287Z,27.16
2023-06-03T23:16:55.957Z,27.09
2023-06-03T23:18:59.005Z,27.47
2023-06-03T23:21:02.283Z,27.10
2023-06-03T23:23:03.928Z,26.68
2023-06-03T23:25:06.547Z,26.53
2023-06-03T23:27:08.584Z,26.52
2023-06-03T23:29:10.445Z,26.83
2023-06-03T23:31:12.246Z,26.16
2023-06-03T23:33:14.947Z,26.36
2023-06-03T23:35:20.422Z,26.29
2023-06-03T23:37:22.105Z,26.72
2023-06-03T23:39:23.843Z,26.35
2023-06-03T23:41:25.685Z,26.47
2023-06-03T23:43:27.338Z,26.67
2023-06-03T23:45:29.028Z,26.50
2023-06-03T23:47:30.811Z,26.35
2023-06-03T23:49:32.677Z,26.08
2023-06-03T23:51:36.700Z,26.14
2023-06-03T23:53:38.342Z,26.31
2023-06-03T23:55:40.126Z,26.08
2023-06-03T23:57:42.842Z,25.97
2023-06-03T23:59:44.606Z,26.04
